sensor_id;sensor_type;location;lat;lon;timestamp;P1;durP1;ratioP1;P2;durP2;ratioP2
12980;SDS011;6555;50.468;8.480;2022-12-31T00:04:19;0.30;;;0.30;;
12980;SDS011;6555;50.468;8.480;2022-12-31T00:09:22;0.50;;;0.50;;
12980;SDS011;6555;50.468;8.480;2022-12-31T00:14:25;0.70;;;0.70;;
12980;SDS011;6555;50.468;8.480;2022-12-31T00:19:29;0.30;;;0.30;;
12980;SDS011;6555;50.468;8.480;2022-12-31T00:24:32;0.30;;;0.30;;
12980;SDS011;6555;50.468;8.480;2022-12-31T00:29:36;0.40;;;0.40;;
12980;SDS011;6555;50.468;8.480;2022-12-31T00:34:40;0.67;;;0.57;;
12980;SDS011;6555;50.468;8.480;2022-12-31T00:39:43;0.67;;;0.67;;
12980;SDS011;6555;50.468;8.480;2022-12-31T00:44:46;0.50;;;0.50;;
12980;SDS011;6555;50.468;8.480;2022-12-31T00:49:50;0.30;;;0.30;;
12980;SDS011;6555;50.468;8.480;2022-12-31T00:54:53;0.27;;;0.27;;
12980;SDS011;6555;50.468;8.480;2022-12-31T00:59:58;0.53;;;0.53;;
12980;SDS011;6555;50.468;8.480;2022-12-31T01:05:02;0.60;;;0.60;;
12980;SDS011;6555;50.468;8.480;2022-12-31T01:10:06;0.53;;;0.53;;
12980;SDS011;6555;50.468;8.480;2022-12-31T01:15:09;0.57;;;0.57;;
12980;SDS011;6555;50.468;8.480;2022-12-31T01:20:13;0.30;;;0.30;;
12980;SDS011;6555;50.468;8.480;2022-12-31T01:25:17;0.40;;;0.40;;
12980;SDS011;6555;50.468;8.480;2022-12-31T01:30:19;0.20;;;0.20;;
12980;SDS011;6555;50.468;8.480;2022-12-31T01:35:26;0.53;;;0.50;;
12980;SDS011;6555;50.468;8.480;2022-12-31T01:40:29;0.33;;;0.33;;
12980;SDS011;6555;50.468;8.480;2022-12-31T01:45:32;0.53;;;0.27;;
12980;SDS011;6555;50.468;8.480;2022-12-31T01:50:36;0.60;;;0.60;;
12980;SDS011;6555;50.468;8.480;2022-12-31T01:55:42;0.20;;;0.20;;
12980;SDS011;6555;50.468;8.480;2022-12-31T02:00:49;0.33;;;0.27;;
12980;SDS011;6555;50.468;8.480;2022-12-31T02:05:55;0.37;;;0.27;;
12980;SDS011;6555;50.468;8.480;2022-12-31T02:11:16;0.27;;;0.27;;
12980;SDS011;6555;50.468;8.480;2022-12-31T02:16:30;0.20;;;0.20;;
12980;SDS011;6555;50.468;8.480;2022-12-31T02:21:47;0.20;;;0.20;;
12980;SDS011;6555;50.468;8.480;2022-12-31T02:26:58;0.20;;;0.17;;
12980;SDS011;6555;50.468;8.480;2022-12-31T02:32:06;0.27;;;0.27;;
12980;SDS011;6555;50.468;8.480;2022-12-31T02:37:13;0.10;;;0.10;;
12980;SDS011;6555;50.468;8.480;2022-12-31T02:42:17;0.13;;;0.13;;
12980;SDS011;6555;50.468;8.480;2022-12-31T02:47:24;0.20;;;0.20;;
12980;SDS011;6555;50.468;8.480;2022-12-31T02:52:35;0.20;;;0.20;;
12980;SDS011;6555;50.468;8.480;2022-12-31T02:57:46;0.20;;;0.20;;
12980;SDS011;6555;50.468;8.480;2022-12-31T03:02:58;0.30;;;0.23;;
12980;SDS011;6555;50.468;8.480;2022-12-31T03:08:03;0.40;;;0.13;;
12980;SDS011;6555;50.468;8.480;2022-12-31T03:13:06;0.13;;;0.13;;
12980;SDS011;6555;50.468;8.480;2022-12-31T03:18:11;0.70;;;0.30;;
12980;SDS011;6555;50.468;8.480;2022-12-31T03:23:17;0.40;;;0.40;;
12980;SDS011;6555;50.468;8.480;2022-12-31T03:28:23;0.73;;;0.40;;
12980;SDS011;6555;50.468;8.480;2022-12-31T03:33:30;0.57;;;0.50;;
12980;SDS011;6555;50.468;8.480;2022-12-31T03:38:34;2.53;;;0.47;;
12980;SDS011;6555;50.468;8.480;2022-12-31T03:43:37;0.63;;;0.40;;
12980;SDS011;6555;50.468;8.480;2022-12-31T03:48:43;0.20;;;0.20;;
12980;SDS011;6555;50.468;8.480;2022-12-31T03:53:46;0.20;;;0.20;;
12980;SDS011;6555;50.468;8.480;2022-12-31T03:58:49;0.30;;;0.30;;
12980;SDS011;6555;50.468;8.480;2022-12-31T04:03:54;0.47;;;0.47;;
12980;SDS011;6555;50.468;8.480;2022-12-31T04:08:57;0.73;;;0.40;;
12980;SDS011;6555;50.468;8.480;2022-12-31T04:13:59;0.30;;;0.30;;
12980;SDS011;6555;50.468;8.480;2022-12-31T04:19:04;5.13;;;1.00;;
12980;SDS011;6555;50.468;8.480;2022-12-31T04:24:07;0.33;;;0.33;;
12980;SDS011;6555;50.468;8.480;2022-12-31T04:29:10;0.60;;;0.60;;
12980;SDS011;6555;50.468;8.480;2022-12-31T04:34:14;1.10;;;0.40;;
12980;SDS011;6555;50.468;8.480;2022-12-31T04:39:17;0.33;;;0.33;;
12980;SDS011;6555;50.468;8.480;2022-12-31T04:44:20;0.40;;;0.40;;
12980;SDS011;6555;50.468;8.480;2022-12-31T04:49:25;0.53;;;0.53;;
12980;SDS011;6555;50.468;8.480;2022-12-31T04:54:28;0.90;;;0.80;;
12980;SDS011;6555;50.468;8.480;2022-12-31T04:59:31;0.80;;;0.80;;
12980;SDS011;6555;50.468;8.480;2022-12-31T05:04:36;0.63;;;0.50;;
12980;SDS011;6555;50.468;8.480;2022-12-31T05:09:38;0.40;;;0.40;;
12980;SDS011;6555;50.468;8.480;2022-12-31T05:14:41;0.47;;;0.47;;
12980;SDS011;6555;50.468;8.480;2022-12-31T05:19:46;0.40;;;0.40;;
12980;SDS011;6555;50.468;8.480;2022-12-31T05:24:49;1.37;;;0.67;;
12980;SDS011;6555;50.468;8.480;2022-12-31T05:29:52;0.60;;;0.60;;
12980;SDS011;6555;50.468;8.480;2022-12-31T05:34:57;0.43;;;0.43;;
12980;SDS011;6555;50.468;8.480;2022-12-31T05:40:00;1.70;;;0.77;;
12980;SDS011;6555;50.468;8.480;2022-12-31T05:45:04;0.80;;;0.80;;
12980;SDS011;6555;50.468;8.480;2022-12-31T05:50:09;1.60;;;0.80;;
12980;SDS011;6555;50.468;8.480;2022-12-31T05:55:15;1.03;;;0.90;;
12980;SDS011;6555;50.468;8.480;2022-12-31T06:00:18;0.77;;;0.63;;
12980;SDS011;6555;50.468;8.480;2022-12-31T06:05:22;0.80;;;0.80;;
12980;SDS011;6555;50.468;8.480;2022-12-31T06:10:27;1.23;;;0.80;;
12980;SDS011;6555;50.468;8.480;2022-12-31T06:15:30;0.60;;;0.60;;
12980;SDS011;6555;50.468;8.480;2022-12-31T06:20:36;1.30;;;0.73;;
12980;SDS011;6555;50.468;8.480;2022-12-31T06:25:39;0.63;;;0.57;;
12980;SDS011;6555;50.468;8.480;2022-12-31T06:30:42;1.60;;;1.10;;
12980;SDS011;6555;50.468;8.480;2022-12-31T06:35:46;1.13;;;0.67;;
12980;SDS011;6555;50.468;8.480;2022-12-31T06:40:49;1.03;;;0.80;;
12980;SDS011;6555;50.468;8.480;2022-12-31T06:45:52;1.53;;;0.90;;
12980;SDS011;6555;50.468;8.480;2022-12-31T06:50:57;0.77;;;0.70;;
12980;SDS011;6555;50.468;8.480;2022-12-31T06:56:05;1.00;;;0.70;;
12980;SDS011;6555;50.468;8.480;2022-12-31T07:01:11;1.67;;;1.20;;
12980;SDS011;6555;50.468;8.480;2022-12-31T07:06:32;1.03;;;0.93;;
12980;SDS011;6555;50.468;8.480;2022-12-31T07:11:40;0.80;;;0.80;;
12980;SDS011;6555;50.468;8.480;2022-12-31T07:16:49;1.10;;;0.87;;
12980;SDS011;6555;50.468;8.480;2022-12-31T07:22:02;1.93;;;1.10;;
12980;SDS011;6555;50.468;8.480;2022-12-31T07:27:09;1.70;;;0.80;;
12980;SDS011;6555;50.468;8.480;2022-12-31T07:32:24;1.20;;;1.00;;
12980;SDS011;6555;50.468;8.480;2022-12-31T07:37:39;0.80;;;0.80;;
12980;SDS011;6555;50.468;8.480;2022-12-31T07:42:55;1.53;;;0.87;;
12980;SDS011;6555;50.468;8.480;2022-12-31T07:48:06;1.20;;;0.83;;
12980;SDS011;6555;50.468;8.480;2022-12-31T07:53:23;0.90;;;0.90;;
12980;SDS011;6555;50.468;8.480;2022-12-31T07:58:28;1.70;;;0.90;;
12980;SDS011;6555;50.468;8.480;2022-12-31T08:03:51;1.50;;;0.90;;
12980;SDS011;6555;50.468;8.480;2022-12-31T08:09:03;1.43;;;0.90;;
12980;SDS011;6555;50.468;8.480;2022-12-31T08:14:12;1.00;;;0.90;;
12980;SDS011;6555;50.468;8.480;2022-12-31T08:19:19;1.23;;;0.80;;
12980;SDS011;6555;50.468;8.480;2022-12-31T08:24:28;0.97;;;0.87;;
12980;SDS011;6555;50.468;8.480;2022-12-31T08:29:38;1.33;;;0.90;;
12980;SDS011;6555;50.468;8.480;2022-12-31T08:34:49;1.10;;;0.80;;
12980;SDS011;6555;50.468;8.480;2022-12-31T08:40:05;1.13;;;0.73;;
12980;SDS011;6555;50.468;8.480;2022-12-31T08:45:18;0.87;;;0.70;;
12980;SDS011;6555;50.468;8.480;2022-12-31T08:50:27;0.83;;;0.73;;
12980;SDS011;6555;50.468;8.480;2022-12-31T08:55:32;0.83;;;0.83;;
12980;SDS011;6555;50.468;8.480;2022-12-31T09:00:35;2.33;;;0.90;;
12980;SDS011;6555;50.468;8.480;2022-12-31T09:05:45;0.87;;;0.87;;
12980;SDS011;6555;50.468;8.480;2022-12-31T09:10:57;1.27;;;0.90;;
12980;SDS011;6555;50.468;8.480;2022-12-31T09:16:06;1.43;;;0.90;;
12980;SDS011;6555;50.468;8.480;2022-12-31T09:21:17;1.13;;;0.70;;
12980;SDS011;6555;50.468;8.480;2022-12-31T09:26:27;1.47;;;1.00;;
12980;SDS011;6555;50.468;8.480;2022-12-31T09:31:44;1.37;;;0.97;;
12980;SDS011;6555;50.468;8.480;2022-12-31T09:36:53;1.47;;;1.10;;
12980;SDS011;6555;50.468;8.480;2022-12-31T09:42:13;0.80;;;0.80;;
12980;SDS011;6555;50.468;8.480;2022-12-31T09:47:56;1.40;;;0.83;;
12980;SDS011;6555;50.468;8.480;2022-12-31T09:53:33;1.00;;;0.83;;
12980;SDS011;6555;50.468;8.480;2022-12-31T09:58:43;1.47;;;0.90;;
12980;SDS011;6555;50.468;8.480;2022-12-31T10:03:57;2.30;;;0.90;;
12980;SDS011;6555;50.468;8.480;2022-12-31T10:14:48;1.27;;;0.90;;
12980;SDS011;6555;50.468;8.480;2022-12-31T10:20:14;1.20;;;0.90;;
12980;SDS011;6555;50.468;8.480;2022-12-31T10:25:37;1.83;;;1.17;;
12980;SDS011;6555;50.468;8.480;2022-12-31T10:30:55;1.30;;;1.20;;
12980;SDS011;6555;50.468;8.480;2022-12-31T10:36:08;2.57;;;1.30;;
12980;SDS011;6555;50.468;8.480;2022-12-31T10:41:30;1.10;;;0.77;;
12980;SDS011;6555;50.468;8.480;2022-12-31T10:52:42;2.33;;;1.02;;
12980;SDS011;6555;50.468;8.480;2022-12-31T11:04:18;2.22;;;1.13;;
12980;SDS011;6555;50.468;8.480;2022-12-31T11:15:23;1.77;;;1.00;;
12980;SDS011;6555;50.468;8.480;2022-12-31T11:20:43;1.50;;;1.05;;
12980;SDS011;6555;50.468;8.480;2022-12-31T11:25:59;2.33;;;1.00;;
12980;SDS011;6555;50.468;8.480;2022-12-31T11:31:16;2.73;;;1.00;;
12980;SDS011;6555;50.468;8.480;2022-12-31T11:36:32;1.20;;;0.90;;
12980;SDS011;6555;50.468;8.480;2022-12-31T11:41:45;1.57;;;1.10;;
12980;SDS011;6555;50.468;8.480;2022-12-31T11:46:56;1.80;;;1.10;;
12980;SDS011;6555;50.468;8.480;2022-12-31T11:52:32;2.33;;;1.03;;
12980;SDS011;6555;50.468;8.480;2022-12-31T11:57:51;1.93;;;0.90;;
12980;SDS011;6555;50.468;8.480;2022-12-31T12:02:55;2.27;;;1.13;;
12980;SDS011;6555;50.468;8.480;2022-12-31T13:52:31;1.20;;;1.00;;
12980;SDS011;6555;50.468;8.480;2022-12-31T13:57:41;2.60;;;1.45;;
12980;SDS011;6555;50.468;8.480;2022-12-31T14:02:51;2.90;;;1.10;;
12980;SDS011;6555;50.468;8.480;2022-12-31T14:08:02;2.07;;;1.60;;
12980;SDS011;6555;50.468;8.480;2022-12-31T14:13:12;2.93;;;1.30;;
12980;SDS011;6555;50.468;8.480;2022-12-31T14:18:35;1.43;;;1.30;;
12980;SDS011;6555;50.468;8.480;2022-12-31T14:23:45;2.13;;;1.40;;
12980;SDS011;6555;50.468;8.480;2022-12-31T14:28:58;2.00;;;1.70;;
12980;SDS011;6555;50.468;8.480;2022-12-31T14:34:05;1.70;;;1.47;;
12980;SDS011;6555;50.468;8.480;2022-12-31T14:39:20;1.67;;;1.50;;
12980;SDS011;6555;50.468;8.480;2022-12-31T14:44:41;4.40;;;1.60;;
12980;SDS011;6555;50.468;8.480;2022-12-31T14:49:51;2.83;;;1.50;;
12980;SDS011;6555;50.468;8.480;2022-12-31T14:55:18;2.13;;;1.40;;
12980;SDS011;6555;50.468;8.480;2022-12-31T15:00:29;2.53;;;1.40;;
12980;SDS011;6555;50.468;8.480;2022-12-31T15:05:35;3.20;;;2.00;;
12980;SDS011;6555;50.468;8.480;2022-12-31T15:10:44;1.50;;;1.40;;
12980;SDS011;6555;50.468;8.480;2022-12-31T15:21:25;1.60;;;1.43;;
12980;SDS011;6555;50.468;8.480;2022-12-31T15:26:47;2.20;;;1.40;;
12980;SDS011;6555;50.468;8.480;2022-12-31T15:31:52;2.20;;;1.53;;
12980;SDS011;6555;50.468;8.480;2022-12-31T15:36:58;2.70;;;1.60;;
12980;SDS011;6555;50.468;8.480;2022-12-31T15:42:21;2.13;;;1.30;;
12980;SDS011;6555;50.468;8.480;2022-12-31T15:47:40;2.10;;;1.30;;
12980;SDS011;6555;50.468;8.480;2022-12-31T15:52:49;2.43;;;1.37;;
12980;SDS011;6555;50.468;8.480;2022-12-31T15:57:57;2.33;;;1.30;;
12980;SDS011;6555;50.468;8.480;2022-12-31T16:03:03;1.50;;;1.40;;
12980;SDS011;6555;50.468;8.480;2022-12-31T16:08:06;2.27;;;1.40;;
12980;SDS011;6555;50.468;8.480;2022-12-31T16:13:20;4.33;;;1.40;;
12980;SDS011;6555;50.468;8.480;2022-12-31T16:18:34;2.70;;;1.20;;
12980;SDS011;6555;50.468;8.480;2022-12-31T16:23:38;1.80;;;1.40;;
12980;SDS011;6555;50.468;8.480;2022-12-31T16:28:51;1.20;;;1.10;;
12980;SDS011;6555;50.468;8.480;2022-12-31T16:34:04;1.70;;;1.10;;
12980;SDS011;6555;50.468;8.480;2022-12-31T16:44:34;3.60;;;1.47;;
12980;SDS011;6555;50.468;8.480;2022-12-31T16:49:37;1.50;;;1.30;;
12980;SDS011;6555;50.468;8.480;2022-12-31T16:54:43;1.20;;;1.10;;
12980;SDS011;6555;50.468;8.480;2022-12-31T16:59:50;2.53;;;1.30;;
12980;SDS011;6555;50.468;8.480;2022-12-31T17:04:56;2.03;;;1.30;;
12980;SDS011;6555;50.468;8.480;2022-12-31T17:10:02;1.77;;;1.20;;
12980;SDS011;6555;50.468;8.480;2022-12-31T17:15:15;4.40;;;1.60;;
12980;SDS011;6555;50.468;8.480;2022-12-31T17:20:21;1.50;;;1.40;;
12980;SDS011;6555;50.468;8.480;2022-12-31T17:25:27;2.40;;;1.60;;
12980;SDS011;6555;50.468;8.480;2022-12-31T17:30:38;1.60;;;1.40;;
12980;SDS011;6555;50.468;8.480;2022-12-31T17:35:42;1.43;;;1.30;;
12980;SDS011;6555;50.468;8.480;2022-12-31T17:40:46;1.13;;;1.03;;
12980;SDS011;6555;50.468;8.480;2022-12-31T17:45:54;1.60;;;1.50;;
12980;SDS011;6555;50.468;8.480;2022-12-31T17:50:57;1.90;;;1.20;;
12980;SDS011;6555;50.468;8.480;2022-12-31T17:56:02;2.17;;;1.67;;
12980;SDS011;6555;50.468;8.480;2022-12-31T18:01:08;3.13;;;1.30;;
12980;SDS011;6555;50.468;8.480;2022-12-31T18:06:16;4.90;;;1.30;;
12980;SDS011;6555;50.468;8.480;2022-12-31T18:11:21;1.80;;;1.60;;
12980;SDS011;6555;50.468;8.480;2022-12-31T18:16:26;1.97;;;1.37;;
12980;SDS011;6555;50.468;8.480;2022-12-31T18:21:30;2.07;;;1.27;;
12980;SDS011;6555;50.468;8.480;2022-12-31T18:26:34;3.27;;;2.00;;
12980;SDS011;6555;50.468;8.480;2022-12-31T18:31:39;2.20;;;1.60;;
12980;SDS011;6555;50.468;8.480;2022-12-31T18:36:45;1.40;;;1.30;;
12980;SDS011;6555;50.468;8.480;2022-12-31T18:41:48;1.83;;;1.47;;
12980;SDS011;6555;50.468;8.480;2022-12-31T18:46:52;2.50;;;1.70;;
12980;SDS011;6555;50.468;8.480;2022-12-31T18:51:55;3.03;;;1.40;;
12980;SDS011;6555;50.468;8.480;2022-12-31T18:56:59;3.17;;;1.40;;
12980;SDS011;6555;50.468;8.480;2022-12-31T19:02:03;2.10;;;1.20;;
12980;SDS011;6555;50.468;8.480;2022-12-31T19:07:12;2.40;;;1.20;;
12980;SDS011;6555;50.468;8.480;2022-12-31T19:12:15;2.37;;;1.37;;
12980;SDS011;6555;50.468;8.480;2022-12-31T19:17:20;1.53;;;1.10;;
12980;SDS011;6555;50.468;8.480;2022-12-31T19:22:22;1.63;;;1.27;;
12980;SDS011;6555;50.468;8.480;2022-12-31T19:27:25;1.30;;;1.20;;
12980;SDS011;6555;50.468;8.480;2022-12-31T19:32:30;1.30;;;1.20;;
12980;SDS011;6555;50.468;8.480;2022-12-31T19:37:33;6.10;;;1.50;;
12980;SDS011;6555;50.468;8.480;2022-12-31T19:42:36;2.00;;;1.23;;
12980;SDS011;6555;50.468;8.480;2022-12-31T19:47:40;2.37;;;1.40;;
12980;SDS011;6555;50.468;8.480;2022-12-31T19:52:44;2.67;;;1.60;;
12980;SDS011;6555;50.468;8.480;2022-12-31T19:57:48;4.13;;;1.50;;
12980;SDS011;6555;50.468;8.480;2022-12-31T20:02:52;2.87;;;1.40;;
12980;SDS011;6555;50.468;8.480;2022-12-31T20:08:03;3.00;;;1.50;;
12980;SDS011;6555;50.468;8.480;2022-12-31T20:13:35;2.07;;;1.40;;
12980;SDS011;6555;50.468;8.480;2022-12-31T20:19:02;1.70;;;1.20;;
12980;SDS011;6555;50.468;8.480;2022-12-31T20:24:40;1.37;;;1.27;;
12980;SDS011;6555;50.468;8.480;2022-12-31T20:30:05;1.20;;;1.10;;
12980;SDS011;6555;50.468;8.480;2022-12-31T20:35:31;1.47;;;1.03;;
12980;SDS011;6555;50.468;8.480;2022-12-31T20:40:48;5.13;;;1.10;;
12980;SDS011;6555;50.468;8.480;2022-12-31T20:46:14;1.60;;;1.13;;
12980;SDS011;6555;50.468;8.480;2022-12-31T20:51:44;1.80;;;1.20;;
12980;SDS011;6555;50.468;8.480;2022-12-31T20:57:01;1.90;;;1.30;;
12980;SDS011;6555;50.468;8.480;2022-12-31T21:02:20;1.60;;;1.37;;
12980;SDS011;6555;50.468;8.480;2022-12-31T21:07:55;4.67;;;1.10;;
12980;SDS011;6555;50.468;8.480;2022-12-31T21:13:23;1.30;;;1.20;;
12980;SDS011;6555;50.468;8.480;2022-12-31T21:18:44;2.20;;;1.20;;
12980;SDS011;6555;50.468;8.480;2022-12-31T21:23:57;1.40;;;1.20;;
12980;SDS011;6555;50.468;8.480;2022-12-31T21:29:25;2.63;;;1.60;;
12980;SDS011;6555;50.468;8.480;2022-12-31T21:35:00;2.10;;;1.30;;
12980;SDS011;6555;50.468;8.480;2022-12-31T21:40:40;1.93;;;1.30;;
12980;SDS011;6555;50.468;8.480;2022-12-31T21:46:00;2.13;;;1.20;;
12980;SDS011;6555;50.468;8.480;2022-12-31T21:51:11;2.27;;;1.50;;
12980;SDS011;6555;50.468;8.480;2022-12-31T21:56:20;2.30;;;1.37;;
12980;SDS011;6555;50.468;8.480;2022-12-31T22:01:37;4.20;;;1.87;;
12980;SDS011;6555;50.468;8.480;2022-12-31T22:07:06;1.80;;;1.40;;
12980;SDS011;6555;50.468;8.480;2022-12-31T22:12:42;2.63;;;1.63;;
12980;SDS011;6555;50.468;8.480;2022-12-31T22:17:57;2.83;;;1.50;;
12980;SDS011;6555;50.468;8.480;2022-12-31T22:23:10;2.00;;;1.40;;
12980;SDS011;6555;50.468;8.480;2022-12-31T22:28:24;4.00;;;1.70;;
12980;SDS011;6555;50.468;8.480;2022-12-31T22:33:43;3.70;;;1.30;;
12980;SDS011;6555;50.468;8.480;2022-12-31T22:38:53;2.60;;;1.37;;
12980;SDS011;6555;50.468;8.480;2022-12-31T22:44:12;3.20;;;1.70;;
12980;SDS011;6555;50.468;8.480;2022-12-31T22:49:25;1.93;;;1.50;;
12980;SDS011;6555;50.468;8.480;2022-12-31T22:54:35;2.20;;;1.70;;
12980;SDS011;6555;50.468;8.480;2022-12-31T22:59:46;2.03;;;1.30;;
12980;SDS011;6555;50.468;8.480;2022-12-31T23:04:57;2.47;;;1.60;;
12980;SDS011;6555;50.468;8.480;2022-12-31T23:10:20;6.37;;;4.97;;
12980;SDS011;6555;50.468;8.480;2022-12-31T23:15:48;7.90;;;3.20;;
12980;SDS011;6555;50.468;8.480;2022-12-31T23:21:09;3.33;;;2.17;;
12980;SDS011;6555;50.468;8.480;2022-12-31T23:26:34;2.87;;;1.93;;
12980;SDS011;6555;50.468;8.480;2022-12-31T23:31:43;3.60;;;2.57;;
12980;SDS011;6555;50.468;8.480;2022-12-31T23:36:51;2.13;;;1.70;;
12980;SDS011;6555;50.468;8.480;2022-12-31T23:42:00;3.37;;;1.80;;
12980;SDS011;6555;50.468;8.480;2022-12-31T23:47:06;2.13;;;1.93;;
12980;SDS011;6555;50.468;8.480;2022-12-31T23:52:12;2.63;;;2.03;;
12980;SDS011;6555;50.468;8.480;2022-12-31T23:57:19;2.30;;;2.03;;
